Map

Track Data

SID SEASON NUMBER BASIN SUBBASIN NAME ISO_TIME NATURE LAT LON WMO_WIND WMO_PRES WMO_AGENCY TRACK_TYPE DIST2LAND LANDFALL IFLAG USA_AGENCY USA_ATCF_ID USA_LAT USA_LON USA_RECORD USA_STATUS USA_WIND USA_PRES USA_SSHS USA_R34_NE USA_R34_SE USA_R34_SW USA_R34_NW USA_R50_NE USA_R50_SE USA_R50_SW USA_R50_NW USA_R64_NE USA_R64_SE USA_R64_SW USA_R64_NW USA_POCI USA_ROCI USA_RMW USA_EYE TOKYO_LAT TOKYO_LON TOKYO_GRADE TOKYO_WIND TOKYO_PRES TOKYO_R50_DIR TOKYO_R50_LONG TOKYO_R50_SHORT TOKYO_R30_DIR TOKYO_R30_LONG TOKYO_R30_SHORT TOKYO_LAND CMA_LAT CMA_LON CMA_CAT CMA_WIND CMA_PRES HKO_LAT HKO_LON HKO_CAT HKO_WIND HKO_PRES NEWDELHI_LAT NEWDELHI_LON NEWDELHI_GRADE NEWDELHI_WIND NEWDELHI_PRES NEWDELHI_CI NEWDELHI_DP NEWDELHI_POCI REUNION_LAT REUNION_LON REUNION_TYPE REUNION_WIND REUNION_PRES REUNION_TNUM REUNION_CI REUNION_RMW REUNION_R34_NE REUNION_R34_SE REUNION_R34_SW REUNION_R34_NW REUNION_R50_NE REUNION_R50_SE REUNION_R50_SW REUNION_R50_NW REUNION_R64_NE REUNION_R64_SE REUNION_R64_SW REUNION_R64_NW BOM_LAT BOM_LON BOM_TYPE BOM_WIND BOM_PRES BOM_TNUM BOM_CI BOM_RMW BOM_R34_NE BOM_R34_SE BOM_R34_SW BOM_R34_NW BOM_R50_NE BOM_R50_SE BOM_R50_SW BOM_R50_NW BOM_R64_NE BOM_R64_SE BOM_R64_SW BOM_R64_NW BOM_ROCI BOM_POCI BOM_EYE BOM_POS_METHOD BOM_PRES_METHOD NADI_LAT NADI_LON NADI_CAT NADI_WIND NADI_PRES WELLINGTON_LAT WELLINGTON_LON WELLINGTON_WIND WELLINGTON_PRES DS824_LAT DS824_LON DS824_STAGE DS824_WIND DS824_PRES TD9636_LAT TD9636_LON TD9636_STAGE TD9636_WIND TD9636_PRES TD9635_LAT TD9635_LON TD9635_WIND TD9635_PRES TD9635_ROCI NEUMANN_LAT NEUMANN_LON NEUMANN_CLASS NEUMANN_WIND NEUMANN_PRES MLC_LAT MLC_LON MLC_CLASS MLC_WIND MLC_PRES USA_GUST BOM_GUST BOM_GUST_PER REUNION_GUST REUNION_GUST_PER USA_SEAHGT USA_SEARAD_NE USA_SEARAD_SE USA_SEARAD_SW USA_SEARAD_NW STORM_SPEED STORM_DIR
1939220N19296 1939 48 NA NA NOT_NAMED 1939-08-07 18:00:00 TS 19.3000 -63.9000 30 hurdat_atl main 205 184 O_____________ hurdat_atl AL021939 19.3000 -63.9000 TD 30 -1 7 283
1939220N19296 1939 48 NA NA NOT_NAMED 1939-08-07 21:00:00 TS 19.3776 -64.2500 main 176 160 P_____________ AL021939 19.3776 -64.2500 TD 30 -1 7 287
1939220N19296 1939 48 NA NA NOT_NAMED 1939-08-08 00:00:00 TS 19.5000 -64.6000 30 hurdat_atl main 161 153 O_____________ hurdat_atl AL021939 19.5000 -64.6000 TD 30 -1 7 296
1939220N19296 1939 48 NA NA NOT_NAMED 1939-08-08 03:00:00 TS 19.6924 -64.9499 main 162 158 P_____________ AL021939 19.6924 -64.9499 TD 30 -1 8 301
1939220N19296 1939 48 NA NA NOT_NAMED 1939-08-08 06:00:00 TS 19.9000 -65.3000 30 hurdat_atl main 170 169 O_____________ hurdat_atl AL021939 19.9000 -65.3000 TD 30 -1 7 299
1939220N19296 1939 48 NA NA NOT_NAMED 1939-08-08 09:00:00 TS 20.0423 -65.6353 main 178 178 P_____________ AL021939 20.0423 -65.6353 TD 30 -1 7 295
1939220N19296 1939 48 NA NA NOT_NAMED 1939-08-08 12:00:00 TS 20.2000 -66.0000 30 hurdat_atl main 201 201 O_____________ hurdat_atl AL021939 20.2000 -66.0000 TD 30 -1 8 297
1939220N19296 1939 48 NA NA NOT_NAMED 1939-08-08 15:00:00 TS 20.4124 -66.4203 main 223 223 P_____________ AL021939 20.4124 -66.4203 TD 30 -1 10 301
1939220N19296 1939 48 NA NA NOT_NAMED 1939-08-08 18:00:00 TS 20.7000 -66.9000 30 hurdat_atl main 257 257 O_____________ hurdat_atl AL021939 20.7000 -66.9000 TD 30 -1 12 306
1939220N19296 1939 48 NA NA NOT_NAMED 1939-08-08 21:00:00 TS 21.0849 -67.4275 main 282 272 P_____________ AL021939 21.0849 -67.4275 TD 32 -1 13 308
1939220N19296 1939 48 NA NA NOT_NAMED 1939-08-09 00:00:00 TS 21.5000 -68.0000 35 hurdat_atl main 280 275 O_____________ hurdat_atl AL021939 21.5000 -68.0000 TS 35 0 13 306
1939220N19296 1939 48 NA NA NOT_NAMED 1939-08-09 03:00:00 TS 21.8649 -68.6002 main 295 290 P_____________ AL021939 21.8649 -68.6002 TS 35 0 13 302
1939220N19296 1939 48 NA NA NOT_NAMED 1939-08-09 06:00:00 TS 22.2000 -69.2000 35 hurdat_atl main 302 299 O_____________ hurdat_atl AL021939 22.2000 -69.2000 TS 35 0 13 301
1939220N19296 1939 48 NA NA NOT_NAMED 1939-08-09 09:00:00 TS 22.5148 -69.7652 main 313 313 P_____________ AL021939 22.5148 -69.7652 TS 37 0 12 301
1939220N19296 1939 48 NA NA NOT_NAMED 1939-08-09 12:00:00 TS 22.8000 -70.3000 40 hurdat_atl main 330 303 O_____________ hurdat_atl AL021939 22.8000 -70.3000 TS 40 0 11 300
1939220N19296 1939 48 NA NA NOT_NAMED 1939-08-09 15:00:00 TS 23.0648 -70.8077 main 310 290 P_____________ AL021939 23.0648 -70.8077 TS 40 0 10 299
1939220N19296 1939 48 NA NA NOT_NAMED 1939-08-09 18:00:00 TS 23.3000 -71.3000 40 hurdat_atl main 292 284 O_____________ hurdat_atl AL021939 23.3000 -71.3000 TS 40 0 10 296
1939220N19296 1939 48 NA NA NOT_NAMED 1939-08-09 21:00:00 TS 23.5148 -71.8001 main 285 280 P_____________ AL021939 23.5148 -71.8001 TS 42 0 10 294
1939220N19296 1939 48 NA NA NOT_NAMED 1939-08-10 00:00:00 TS 23.7000 -72.3000 45 hurdat_atl main 288 286 O_____________ hurdat_atl AL021939 23.7000 -72.3000 TS 45 0 10 291
1939220N19296 1939 48 NA NA NOT_NAMED 1939-08-10 03:00:00 TS 23.8573 -72.8002 main 302 301 P_____________ AL021939 23.8573 -72.8002 TS 45 0 10 288
1939220N19296 1939 48 NA NA NOT_NAMED 1939-08-10 06:00:00 TS 24.0000 -73.3000 45 hurdat_atl main 313 313 O_____________ hurdat_atl AL021939 24.0000 -73.3000 TS 45 0 10 287
1939220N19296 1939 48 NA NA NOT_NAMED 1939-08-10 09:00:00 TS 24.1423 -73.8002 main 329 329 P_____________ AL021939 24.1423 -73.8002 TS 47 0 10 288
1939220N19296 1939 48 NA NA NOT_NAMED 1939-08-10 12:00:00 TS 24.3000 -74.3000 50 hurdat_atl main 344 293 O_____________ hurdat_atl AL021939 24.3000 -74.3000 TS 50 0 10 291
1939220N19296 1939 48 NA NA NOT_NAMED 1939-08-10 15:00:00 TS 24.4848 -74.8002 main 293 243 P_____________ AL021939 24.4848 -74.8002 TS 52 0 10 294
1939220N19296 1939 48 NA NA NOT_NAMED 1939-08-10 18:00:00 TS 24.7000 -75.3000 55 hurdat_atl main 243 196 O_____________ hurdat_atl AL021939 24.7000 -75.3000 TS 55 0 10 297
1939220N19296 1939 48 NA NA NOT_NAMED 1939-08-10 21:00:00 TS 24.9423 -75.8001 main 196 161 P_____________ AL021939 24.9423 -75.8001 TS 55 0 10 299
1939220N19296 1939 48 NA NA NOT_NAMED 1939-08-11 00:00:00 TS 25.2000 -76.3000 55 hurdat_atl main 161 123 O_____________ hurdat_atl AL021939 25.2000 -76.3000 TS 55 0 10 299
1939220N19296 1939 48 NA NA NOT_NAMED 1939-08-11 03:00:00 TS 25.4498 -76.8002 main 123 97 P_____________ AL021939 25.4498 -76.8002 TS 57 0 10 299
1939220N19296 1939 48 NA NA NOT_NAMED 1939-08-11 06:00:00 TS 25.7000 -77.3000 60 hurdat_atl main 97 87 O_____________ hurdat_atl AL021939 25.7000 -77.3000 TS 60 0 10 299
1939220N19296 1939 48 NA NA NOT_NAMED 1939-08-11 09:00:00 TS 25.9498 -77.8002 main 91 91 P_____________ AL021939 25.9498 -77.8002 TS 62 0 10 299
1939220N19296 1939 48 NA NA NOT_NAMED 1939-08-11 12:00:00 TS 26.2000 -78.3000 65 hurdat_atl main 124 124 O_____________ hurdat_atl AL021939 26.2000 -78.3000 HU 65 1 10 299
1939220N19296 1939 48 NA NA NOT_NAMED 1939-08-11 15:00:00 TS 26.4415 -78.7938 main 127 70 P_____________ AL021939 26.4415 -78.7938 HU 65 1 10 299
1939220N19296 1939 48 NA NA NOT_NAMED 1939-08-11 18:00:00 TS 26.7000 -79.3000 65 hurdat_atl main 70 29 O_____________ hurdat_atl AL021939 26.7000 -79.3000 HU 65 1 11 301
1939220N19296 1939 48 NA NA NOT_NAMED 1939-08-11 21:00:00 TS 26.9962 -79.8230 main 29 0 P_____________ AL021939 26.9962 -79.8230 HU 65 1 11 302
1939220N19296 1939 48 NA NA NOT_NAMED 1939-08-11 23:00:00 TS 27.2000 -80.2000 65 hurdat_atl main 0 0 O_____________ hurdat_atl AL021939 27.2000 -80.2000 L HU 65 1 12 301
1939220N19296 1939 48 NA NA NOT_NAMED 1939-08-12 00:00:00 TS 27.3000 -80.4000 65 hurdat_atl main 0 0 O_____________ hurdat_atl AL021939 27.3000 -80.4000 HU 65 1 13 296
1939220N19296 1939 48 NA NA NOT_NAMED 1939-08-12 03:00:00 TS 27.5941 -81.1097 main 0 0 P_____________ AL021939 27.5941 -81.1097 HU 57 0 15 294
1939220N19296 1939 48 NA NA NOT_NAMED 1939-08-12 06:00:00 TS 27.9000 -81.9000 50 hurdat_atl main 0 0 O_____________ hurdat_atl AL021939 27.9000 -81.9000 TS 50 0 15 295
1939220N19296 1939 48 NA NA NOT_NAMED 1939-08-12 09:00:00 TS 28.2499 -82.6725 main 0 0 P_____________ AL021939 28.2499 -82.6725 TS 52 0 15 298
1939220N19296 1939 48 NA GM NOT_NAMED 1939-08-12 12:00:00 TS 28.6000 -83.4000 55 hurdat_atl main 73 68 O_____________ hurdat_atl AL021939 28.6000 -83.4000 TS 55 0 14 299
1939220N19296 1939 48 NA GM NOT_NAMED 1939-08-12 15:00:00 TS 28.9071 -84.0380 main 88 62 P_____________ AL021939 28.9071 -84.0380 TS 60 0 12 300
1939220N19296 1939 48 NA GM NOT_NAMED 1939-08-12 18:00:00 TS 29.2000 -84.6000 65 hurdat_atl main 62 22 O_____________ hurdat_atl AL021939 29.2000 -84.6000 HU 65 1 11 302
1939220N19296 1939 48 NA GM NOT_NAMED 1939-08-12 21:00:00 TS 29.4998 -85.1303 main 22 0 P_____________ AL021939 29.4998 -85.1303 HU 65 1 11 305
1939220N19296 1939 48 NA GM NOT_NAMED 1939-08-13 00:00:00 TS 29.8000 -85.6000 65 hurdat_atl main 19 14 O_____________ hurdat_atl AL021939 29.8000 -85.6000 HU 65 1 10 308
1939220N19296 1939 48 NA GM NOT_NAMED 1939-08-13 03:00:00 TS 30.0998 -86.0228 main 14 9 P_____________ AL021939 30.0998 -86.0228 HU 65 1 9 311
1939220N19296 1939 48 NA GM NOT_NAMED 1939-08-13 06:00:00 TS 30.4000 -86.4000 65 985 hurdat_atl main 11 0 O_____________ hurdat_atl AL021939 30.4000 -86.4000 L HU 65 985 1 9 313
1939220N19296 1939 48 NA NA NOT_NAMED 1939-08-13 09:00:00 TS 30.7150 -86.7800 main 0 0 P_____________ AL021939 30.7150 -86.7800 HU 57 0 9 315
1939220N19296 1939 48 NA NA NOT_NAMED 1939-08-13 12:00:00 TS 31.0000 -87.1000 50 hurdat_atl main 0 0 O_____________ hurdat_atl AL021939 31.0000 -87.1000 TS 50 0 7 318
1939220N19296 1939 48 NA NA NOT_NAMED 1939-08-13 15:00:00 TS 31.2299 -87.3302 main 0 0 P_____________ AL021939 31.2299 -87.3302 TS 45 0 5 319
1939220N19296 1939 48 NA NA NOT_NAMED 1939-08-13 18:00:00 TS 31.4000 -87.5000 40 hurdat_atl main 0 0 O_____________ hurdat_atl AL021939 31.4000 -87.5000 TS 40 0 4 315
1939220N19296 1939 48 NA NA NOT_NAMED 1939-08-13 21:00:00 TS 31.5150 -87.6651 main 0 0 P_____________ AL021939 31.5150 -87.6651 TS 37 0 3 308
1939220N19296 1939 48 NA NA NOT_NAMED 1939-08-14 00:00:00 TS 31.6000 -87.8000 35 hurdat_atl main 0 0 O_____________ hurdat_atl AL021939 31.6000 -87.8000 TS 35 0 3 310
1939220N19296 1939 48 NA NA NOT_NAMED 1939-08-14 03:00:00 TS 31.7000 -87.9225 main 0 0 P_____________ AL021939 31.7000 -87.9225 TS 32 -1 3 320
1939220N19296 1939 48 NA NA NOT_NAMED 1939-08-14 06:00:00 TS 31.8000 -88.0000 30 hurdat_atl main 0 0 O_____________ hurdat_atl AL021939 31.8000 -88.0000 TD 30 -1 2 337
1939220N19296 1939 48 NA NA NOT_NAMED 1939-08-14 09:00:00 TS 31.8925 -88.0150 main 0 0 P_____________ AL021939 31.8925 -88.0150 TD 30 -1 2 8
1939220N19296 1939 48 NA NA NOT_NAMED 1939-08-14 12:00:00 TS 32.0000 -88.0000 30 hurdat_atl main 0 0 O_____________ hurdat_atl AL021939 32.0000 -88.0000 TD 30 -1 3 2
1939220N19296 1939 48 NA NA NOT_NAMED 1939-08-14 15:00:00 TS 32.1425 -88.0075 main 0 0 P_____________ AL021939 32.1425 -88.0075 TD 30 -1 3 0
1939220N19296 1939 48 NA NA NOT_NAMED 1939-08-14 18:00:00 TS 32.3000 -88.0000 30 hurdat_atl main 0 0 O_____________ hurdat_atl AL021939 32.3000 -88.0000 TD 30 -1 3 6
1939220N19296 1939 48 NA NA NOT_NAMED 1939-08-14 21:00:00 TS 32.4575 -87.9575 main 0 0 P_____________ AL021939 32.4575 -87.9575 TD 30 -1 3 16
1939220N19296 1939 48 NA NA NOT_NAMED 1939-08-15 00:00:00 TS 32.6000 -87.9000 30 hurdat_atl main 0 0 O_____________ hurdat_atl AL021939 32.6000 -87.9000 TD 30 -1 3 21
1939220N19296 1939 48 NA NA NOT_NAMED 1939-08-15 03:00:00 TS 32.7075 -87.8425 main 0 0 P_____________ AL021939 32.7075 -87.8425 TD 30 -1 2 25
1939220N19296 1939 48 NA NA NOT_NAMED 1939-08-15 06:00:00 TS 32.8000 -87.8000 30 hurdat_atl main 0 0 O_____________ hurdat_atl AL021939 32.8000 -87.8000 TD 30 -1 2 13
1939220N19296 1939 48 NA NA NOT_NAMED 1939-08-15 09:00:00 TS 32.9075 -87.8000 main 0 0 P_____________ AL021939 32.9075 -87.8000 TD 30 -1 2 8
1939220N19296 1939 48 NA NA NOT_NAMED 1939-08-15 12:00:00 TS 33.0000 -87.8000 30 hurdat_atl main 0 0 O_____________ hurdat_atl AL021939 33.0000 -87.8000 TD 30 -1 2 15
1939220N19296 1939 48 NA NA NOT_NAMED 1939-08-15 15:00:00 TS 33.0650 -87.7575 main 0 0 P_____________ AL021939 33.0650 -87.7575 TD 30 -1 1 37
1939220N19296 1939 48 NA NA NOT_NAMED 1939-08-15 18:00:00 TS 33.1000 -87.7000 30 hurdat_atl main 0 0 O_____________ hurdat_atl AL021939 33.1000 -87.7000 TD 30 -1 1 61
1939220N19296 1939 48 NA NA NOT_NAMED 1939-08-15 21:00:00 TS 33.1075 -87.6575 main 0 0 P_____________ AL021939 33.1075 -87.6575 TD 30 -1 1 90
1939220N19296 1939 48 NA NA NOT_NAMED 1939-08-16 00:00:00 TS 33.1000 -87.6000 30 hurdat_atl main 0 0 O_____________ hurdat_atl AL021939 33.1000 -87.6000 TD 30 -1 1 93
1939220N19296 1939 48 NA NA NOT_NAMED 1939-08-16 03:00:00 TS 33.1000 -87.5075 main 0 0 P_____________ AL021939 33.1000 -87.5075 TD 30 -1 2 90
1939220N19296 1939 48 NA NA NOT_NAMED 1939-08-16 06:00:00 TS 33.1000 -87.4000 30 hurdat_atl main 0 0 O_____________ hurdat_atl AL021939 33.1000 -87.4000 TD 30 -1 2 90
1939220N19296 1939 48 NA NA NOT_NAMED 1939-08-16 09:00:00 TS 33.1000 -87.2925 main 0 0 P_____________ AL021939 33.1000 -87.2925 TD 30 -1 2 90
1939220N19296 1939 48 NA NA NOT_NAMED 1939-08-16 12:00:00 TS 33.1000 -87.2000 30 hurdat_atl main 0 0 O_____________ hurdat_atl AL021939 33.1000 -87.2000 TD 30 -1 1 90
1939220N19296 1939 48 NA NA NOT_NAMED 1939-08-16 15:00:00 TS 33.1000 -87.1425 main 0 0 P_____________ AL021939 33.1000 -87.1425 TD 30 -1 1 90
1939220N19296 1939 48 NA NA NOT_NAMED 1939-08-16 18:00:00 TS 33.1000 -87.1000 30 hurdat_atl main 0 0 O_____________ hurdat_atl AL021939 33.1000 -87.1000 TD 30 -1 1 90
1939220N19296 1939 48 NA NA NOT_NAMED 1939-08-16 21:00:00 TS 33.1000 -87.0425 main 0 0 P_____________ AL021939 33.1000 -87.0425 TD 30 -1 1 90
1939220N19296 1939 48 NA NA NOT_NAMED 1939-08-17 00:00:00 TS 33.1000 -87.0000 30 hurdat_atl main 0 0 O_____________ hurdat_atl AL021939 33.1000 -87.0000 TD 30 -1 0 112
1939220N19296 1939 48 NA NA NOT_NAMED 1939-08-17 03:00:00 TS 33.0850 -87.0000 main 0 0 P_____________ AL021939 33.0850 -87.0000 TD 30 -1 0 0
1939220N19296 1939 48 NA NA NOT_NAMED 1939-08-17 06:00:00 TS 33.1000 -87.0000 30 hurdat_atl main 0 0 O_____________ hurdat_atl AL021939 33.1000 -87.0000 TD 30 -1 1 24
1939220N19296 1939 48 NA NA NOT_NAMED 1939-08-17 09:00:00 TS 33.1475 -86.9575 main 0 0 P_____________ AL021939 33.1475 -86.9575 TD 27 -1 2 23
1939220N19296 1939 48 NA NA NOT_NAMED 1939-08-17 12:00:00 TS 33.3000 -86.9000 25 hurdat_atl main 0 0 O_____________ hurdat_atl AL021939 33.3000 -86.9000 TD 25 -1 5 11
1939220N19296 1939 48 NA NA NOT_NAMED 1939-08-17 15:00:00 TS 33.5900 -86.8500 main 0 0 P_____________ AL021939 33.5900 -86.8500 TD 25 -1 7 6
1939220N19296 1939 48 NA NA NOT_NAMED 1939-08-17 18:00:00 TS 34.0000 -86.8000 25 hurdat_atl main 0 0 O_____________ hurdat_atl AL021939 34.0000 -86.8000 TD 25 -1 9 5
1939220N19296 1939 48 NA NA NOT_NAMED 1939-08-17 21:00:00 TS 34.4775 -86.7573 main 0 0 P_____________ AL021939 34.4775 -86.7573 TD 25 -1 10 5
1939220N19296 1939 48 NA NA NOT_NAMED 1939-08-18 00:00:00 TS 35.0000 -86.7000 25 hurdat_atl main 0 0 O_____________ hurdat_atl AL021939 35.0000 -86.7000 TD 25 -1 10 6
1939220N19296 1939 48 NA NA NOT_NAMED 1939-08-18 03:00:00 TS 35.4999 -86.6296 main 0 0 P_____________ AL021939 35.4999 -86.6296 TD 25 -1 10 9
1939220N19296 1939 48 NA NA NOT_NAMED 1939-08-18 06:00:00 TS 36.0000 -86.5000 25 hurdat_atl main 0 0 O_____________ hurdat_atl AL021939 36.0000 -86.5000 TD 25 -1 11 14
1939220N19296 1939 48 NA NA NOT_NAMED 1939-08-18 09:00:00 TS 36.5222 -86.3098 main 0 0 P_____________ AL021939 36.5222 -86.3098 TD 25 -1 11 22
1939220N19296 1939 48 NA NA NOT_NAMED 1939-08-18 12:00:00 TS 37.0000 -86.0000 25 hurdat_atl main 0 0 O_____________ hurdat_atl AL021939 37.0000 -86.0000 TD 25 -1 10 33
1939220N19296 1939 48 NA NA NOT_NAMED 1939-08-18 15:00:00 TS 37.3864 -85.6117 main 0 0 P_____________ AL021939 37.3864 -85.6117 TD 25 -1 11 49
1939220N19296 1939 48 NA NA NOT_NAMED 1939-08-18 18:00:00 TS 37.7000 -85.0000 25 hurdat_atl main 0 0 O_____________ hurdat_atl AL021939 37.7000 -85.0000 TD 25 -1 13 64
1939220N19296 1939 48 NA NA NOT_NAMED 1939-08-18 21:00:00 TS 37.9722 -84.1121 main 0 0 P_____________ AL021939 37.9722 -84.1121 TD 27 -1 17 72
1939220N19296 1939 48 NA NA NOT_NAMED 1939-08-19 00:00:00 TS 38.2000 -83.0000 30 hurdat_atl main 0 0 O_____________ hurdat_atl AL021939 38.2000 -83.0000 TD 30 -1 18 76
1939220N19296 1939 48 NA NA NOT_NAMED 1939-08-19 03:00:00 TS 38.4057 -81.8312 main 0 0 P_____________ AL021939 38.4057 -81.8312 TD 30 -1 20 78
1939220N19296 1939 48 NA NA NOT_NAMED 1939-08-19 06:00:00 TS 38.6000 -80.5000 30 hurdat_atl main 0 0 O_____________ hurdat_atl AL021939 38.6000 -80.5000 TD 30 -1 22 79
1939220N19296 1939 48 NA NA NOT_NAMED 1939-08-19 09:00:00 TS 38.8137 -79.0177 main 0 0 P_____________ AL021939 38.8137 -79.0177 TD 30 -1 24 81
1939220N19296 1939 48 NA NA NOT_NAMED 1939-08-19 12:00:00 TS 39.0000 -77.4000 30 hurdat_atl main 0 0 O_____________ hurdat_atl AL021939 39.0000 -77.4000 TD 30 -1 26 83
1939220N19296 1939 48 NA NA NOT_NAMED 1939-08-19 15:00:00 TS 39.1248 -75.7152 main 0 0 P_____________ AL021939 39.1248 -75.7152 TD 30 -1 26 86
1939220N19296 1939 48 NA NA NOT_NAMED 1939-08-19 18:00:00 TS 39.2000 -74.0000 30 hurdat_atl main 42 O_____________ hurdat_atl AL021939 39.2000 -74.0000 TD 30 -1 27 87

About IBTrACS Database

This database is a web-friendly format of International Best Track Archive for Climate Stewardship (IBTrACS), a global best track data archive curated by NOAA dating back to 1842.

Updated: 2021-12-01